Time;durP1;ratioP1;P1;durP2;ratioP2;P2;SDS_P1;SDS_P2;PMS_P1;PMS_P2;Temp;Humidity;BMP_temperature;BMP_pressure;BME280_temperature;BME280_humidity;BME280_pressure;Samples;Min_cycle;Max_cycle;Signal;HPM_P1;HPM_P2
2022/07/22 00:02:15;;;;;;;9.48;6.05;;;;;;;-145.69;100.00;71362.59;5076109;28;20441;-80
2022/07/22 00:04:41;;;;;;;8.32;5.75;;;;;;;-145.69;100.00;71366.56;5076505;28;20561;-80
2022/07/22 00:07:08;;;;;;;11.85;6.38;;;;;;;-145.69;100.00;71360.59;5075306;28;20202;-80
2022/07/22 00:09:41;;;;;;;10.30;5.85;;;;;;;-145.69;100.00;71360.59;5058172;28;20562;-80
2022/07/22 00:12:07;;;;;;;10.60;6.43;;;;;;;-145.69;100.00;71356.63;5056471;28;20680;-80
2022/07/22 00:14:34;;;;;;;8.18;5.55;;;;;;;-145.69;100.00;71340.72;5056199;28;20203;-79
2022/07/22 00:17:00;;;;;;;8.48;6.03;;;;;;;-145.69;100.00;71344.69;5056344;28;20668;-81
2022/07/22 00:19:27;;;;;;;10.45;5.90;;;;;;;-145.69;100.00;71354.63;5056325;28;20577;-79
2022/07/22 00:21:54;;;;;;;10.32;5.75;;;;;;;-145.69;100.00;71356.63;5056307;28;20199;-79
2022/07/22 00:24:21;;;;;;;9.80;5.75;;;;;;;-145.69;100.00;71362.59;5056065;28;20214;-79
2022/07/22 00:26:49;;;;;;;11.13;5.65;;;;;;;-145.69;100.00;71358.63;5055762;28;20203;-79
2022/07/22 00:29:19;;;;;;;9.95;6.05;;;;;;;-145.69;100.00;71362.59;5066948;28;20450;-79
2022/07/22 00:31:49;;;;;;;9.30;6.28;;;;;;;-145.69;100.00;71358.63;5075908;28;20198;-79
2022/07/22 00:34:16;;;;;;;7.65;5.90;;;;;;;-145.69;100.00;71348.66;5075996;28;20206;-80
2022/07/22 00:36:42;;;;;;;12.30;6.03;;;;;;;-145.69;100.00;71338.72;5075491;28;20207;-80
2022/07/22 00:39:09;;;;;;;10.35;5.78;;;;;;;-145.69;100.00;71338.72;5075522;28;20198;-79
2022/07/22 00:41:35;;;;;;;11.13;5.65;;;;;;;-145.69;100.00;71334.75;5075684;28;20202;-80
2022/07/22 00:44:05;;;;;;;8.35;5.68;;;;;;;-145.69;100.00;71336.72;5075924;28;20248;-79
2022/07/22 00:46:33;;;;;;;10.35;5.70;;;;;;;-145.69;100.00;71346.69;5075535;28;20203;-80
2022/07/22 00:49:00;;;;;;;8.18;5.50;;;;;;;-145.69;100.00;71346.69;5075602;28;20241;-79
2022/07/22 00:51:31;;;;;;;14.43;6.25;;;;;;;-145.69;100.00;71340.72;5074753;28;20226;-79
2022/07/22 00:53:58;;;;;;;8.85;5.40;;;;;;;-145.69;100.00;71348.66;5075755;28;20565;-79
2022/07/22 00:56:26;;;;;;;9.57;5.78;;;;;;;-145.69;100.00;71346.69;5075630;28;20256;-80
2022/07/22 00:58:56;;;;;;;9.65;5.88;;;;;;;-145.69;100.00;71346.69;5074942;28;20649;-80
2022/07/22 01:01:24;;;;;;;8.45;5.68;;;;;;;-145.69;100.00;71358.63;5075476;28;20206;-80
2022/07/22 01:03:50;;;;;;;8.93;5.25;;;;;;;-145.69;100.00;71362.59;5075098;28;20202;-80
2022/07/22 01:06:17;;;;;;;11.10;5.97;;;;;;;-145.69;100.00;71362.59;5075164;28;20202;-80
2022/07/22 01:08:43;;;;;;;7.65;5.70;;;;;;;-145.69;100.00;71362.59;5074852;28;20218;-80
2022/07/22 01:11:12;;;;;;;7.93;5.72;;;;;;;-145.69;100.00;71362.59;5073622;28;20198;-80
2022/07/22 01:13:39;;;;;;;9.80;5.85;;;;;;;-145.69;100.00;71362.59;5054811;28;20471;-80
2022/07/22 01:16:07;;;;;;;8.85;6.07;;;;;;;-145.69;100.00;71374.53;5055298;28;20282;-80
2022/07/22 01:18:36;;;;;;;13.23;6.80;;;;;;;-145.69;100.00;71384.47;5054701;28;20204;-80
2022/07/22 01:21:04;;;;;;;10.93;5.78;;;;;;;-145.69;100.00;71390.47;5067100;28;20202;-80
2022/07/22 01:23:31;;;;;;;9.60;5.72;;;;;;;-145.69;100.00;71406.38;5075125;28;20289;-80
2022/07/22 01:29:19;;;;;;;12.20;6.53;;;;;;;-145.69;100.00;71400.41;5054522;28;20253;-80
2022/07/22 01:31:45;;;;;;;7.00;5.60;;;;;;;-145.69;100.00;71388.47;5054703;28;20203;-80
2022/07/22 01:34:12;;;;;;;8.15;6.07;;;;;;;-145.69;100.00;71382.50;5054636;28;20199;-80
2022/07/22 01:36:40;;;;;;;9.60;6.03;;;;;;;-145.69;100.00;71374.53;5054376;28;20199;-79
2022/07/22 01:39:09;;;;;;;7.95;6.05;;;;;;;-145.69;100.00;71376.53;5054846;28;20199;-80
2022/07/22 01:41:36;;;;;;;11.52;6.00;;;;;;;-145.69;100.00;71370.56;5073111;28;20201;-80
2022/07/22 01:44:02;;;;;;;10.82;5.68;;;;;;;-145.69;100.00;71364.59;5074534;28;20549;-80
2022/07/22 01:46:29;;;;;;;9.40;5.82;;;;;;;-145.69;100.00;71366.56;5074446;28;20198;-80
2022/07/22 01:48:57;;;;;;;8.63;5.85;;;;;;;-145.69;100.00;71370.56;5074048;28;20696;-80
2022/07/22 01:51:28;;;;;;;8.57;5.40;;;;;;;-145.69;100.00;71380.50;5073871;28;20238;-79
2022/07/22 01:53:56;;;;;;;11.25;6.13;;;;;;;-145.69;100.00;71384.47;5074386;28;20198;-80
2022/07/22 01:56:23;;;;;;;7.85;5.63;;;;;;;-145.69;100.00;71388.47;5073905;28;20588;-80
2022/07/22 01:58:49;;;;;;;11.85;5.80;;;;;;;-145.69;100.00;71394.44;5074283;28;20213;-80
2022/07/22 02:01:15;;;;;;;8.75;5.90;;;;;;;-145.69;100.00;71398.41;5073948;28;20210;-80
2022/07/22 02:03:42;;;;;;;9.35;5.53;;;;;;;-145.69;100.00;71398.41;5058993;28;20214;-79
2022/07/22 02:06:08;;;;;;;12.98;6.07;;;;;;;-145.69;100.00;71404.38;5054300;28;20207;-79
2022/07/22 02:08:35;;;;;;;10.20;5.68;;;;;;;-145.69;100.00;71406.38;5054226;28;20253;-79
2022/07/22 02:11:03;;;;;;;11.10;6.43;;;;;;;-145.69;100.00;71414.34;5067739;28;20202;-80
2022/07/22 02:13:30;;;;;;;9.07;5.93;;;;;;;-145.69;100.00;71422.28;5074040;28;20623;-79
2022/07/22 02:15:56;;;;;;;13.48;6.47;;;;;;;-145.69;100.00;71418.31;5073172;28;20676;-79
2022/07/22 02:18:27;;;;;;;10.95;6.25;;;;;;;-145.69;100.00;71430.25;5073463;28;20657;-79
2022/07/22 02:20:54;;;;;;;9.38;6.43;;;;;;;-145.69;100.00;71430.25;5074005;28;20202;-79
2022/07/22 02:23:20;;;;;;;7.43;5.03;;;;;;;-145.69;100.00;71438.22;5073969;28;20210;-79
2022/07/22 02:25:48;;;;;;;10.63;6.13;;;;;;;-145.69;100.00;71458.09;5073696;28;20653;-79
2022/07/22 02:28:18;;;;;;;10.77;6.18;;;;;;;-145.69;100.00;71458.09;5073509;28;20321;-79
2022/07/22 02:30:45;;;;;;;8.25;5.68;;;;;;;-145.69;100.00;71462.09;5073719;28;20202;-78
2022/07/22 02:33:12;;;;;;;12.80;6.93;;;;;;;-145.69;100.00;71456.13;5073717;28;20203;-79
2022/07/22 02:35:38;;;;;;;9.40;6.03;;;;;;;-145.69;100.00;71460.09;5073473;28;20248;-79
2022/07/22 02:38:05;;;;;;;13.45;7.00;;;;;;;-145.69;100.00;71454.13;5073390;28;20195;-79
2022/07/22 02:40:31;;;;;;;11.80;6.57;;;;;;;-145.69;100.00;71458.09;5073131;28;20661;-79
2022/07/22 02:42:58;;;;;;;12.90;6.63;;;;;;;-145.69;100.00;71448.16;5073498;28;20206;-79
2022/07/22 02:45:26;;;;;;;11.80;6.47;;;;;;;-145.69;100.00;71454.13;5073214;28;20680;-79
2022/07/22 02:47:55;;;;;;;7.95;6.15;;;;;;;-145.69;100.00;71474.03;5073595;28;20205;-79
2022/07/22 02:50:27;;;;;;;13.68;6.75;;;;;;;-145.69;100.00;71474.03;5073348;28;20227;-78
2022/07/22 02:52:54;;;;;;;12.90;6.90;;;;;;;-145.69;100.00;71446.16;5073322;28;20249;-78
2022/07/22 02:55:20;;;;;;;10.90;6.32;;;;;;;-145.69;100.00;71446.16;5073282;28;20244;-79
2022/07/22 02:57:47;;;;;;;8.65;5.88;;;;;;;-145.69;100.00;71462.09;5073204;28;20224;-79
2022/07/22 03:00:14;;;;;;;10.15;6.45;;;;;;;-145.69;100.00;71474.03;5073506;28;20284;-79
2022/07/22 03:02:43;;;;;;;10.90;6.32;;;;;;;-145.69;100.00;71480.00;5073235;28;20566;-79
2022/07/22 03:05:10;;;;;;;10.13;6.32;;;;;;;-145.69;100.00;71483.97;5073355;28;20225;-78
2022/07/22 03:07:39;;;;;;;12.60;6.90;;;;;;;-145.69;100.00;71474.03;5073013;28;20199;-78
2022/07/22 03:10:06;;;;;;;9.73;6.03;;;;;;;-145.69;100.00;71509.84;5072297;28;20225;-79
2022/07/22 03:12:33;;;;;;;11.27;6.90;;;;;;;-145.69;100.00;71519.81;5073030;28;20205;-79
2022/07/22 03:14:59;;;;;;;10.85;6.20;;;;;;;-145.69;100.00;71537.72;5072855;28;20205;-78
2022/07/22 03:17:26;;;;;;;12.55;7.28;;;;;;;-145.69;100.00;71545.66;5073142;28;20604;-79
2022/07/22 03:19:54;;;;;;;13.57;6.75;;;;;;;-145.69;100.00;71545.66;5072938;28;20204;-79
2022/07/22 03:22:22;;;;;;;13.27;7.40;;;;;;;-145.69;100.00;71541.69;5072972;28;20203;-79
2022/07/22 03:24:48;;;;;;;12.48;7.40;;;;;;;-145.69;100.00;71537.72;5072830;28;20694;-80
2022/07/22 03:27:15;;;;;;;11.73;7.30;;;;;;;-145.69;100.00;71543.69;5073049;28;20214;-79
2022/07/22 03:29:41;;;;;;;12.20;8.32;;;;;;;-145.69;100.00;71549.66;5072749;28;20236;-79
2022/07/22 03:32:08;;;;;;;13.32;7.80;;;;;;;-145.69;100.00;71549.66;5072859;28;20654;-78
2022/07/22 03:34:37;;;;;;;16.40;7.50;;;;;;;-145.69;100.00;71557.59;5073057;28;20199;-78
2022/07/22 03:37:05;;;;;;;14.48;8.20;;;;;;;-145.69;100.00;71545.66;5072927;28;20205;-79
2022/07/22 03:39:32;;;;;;;11.33;8.10;;;;;;;-145.69;100.00;71549.66;5072246;28;20198;-79
2022/07/22 03:42:00;;;;;;;12.98;8.10;;;;;;;-145.69;100.00;71555.63;5072295;28;20740;-79
2022/07/22 03:44:27;;;;;;;12.07;8.32;;;;;;;-145.69;100.00;71525.78;5072884;28;20218;-80
2022/07/22 03:46:56;;;;;;;13.27;8.83;;;;;;;-145.69;100.00;71515.81;5072759;28;20210;-80
2022/07/22 03:49:22;;;;;;;12.90;7.80;;;;;;;-145.69;100.00;71509.84;5072163;28;20265;-80
2022/07/22 03:51:51;;;;;;;18.80;8.47;;;;;;;-145.69;100.00;71507.84;5072306;28;20672;-80
2022/07/22 03:54:18;;;;;;;14.38;7.93;;;;;;;-145.69;100.00;71503.88;5072845;28;20201;-79
2022/07/22 03:56:45;;;;;;;11.75;7.30;;;;;;;-145.69;100.00;71493.94;5072346;28;20209;-80
2022/07/22 03:59:13;;;;;;;12.20;7.65;;;;;;;-145.69;100.00;71487.97;5057103;28;20554;-79
2022/07/22 04:01:40;;;;;;;14.80;7.67;;;;;;;-145.69;100.00;71497.91;5052352;28;20233;-80
2022/07/22 04:04:06;;;;;;;12.37;7.57;;;;;;;-145.69;100.00;71503.88;5052807;28;20195;-80
2022/07/22 04:06:33;;;;;;;10.52;7.53;;;;;;;-145.69;100.00;71513.81;5052053;28;20670;-79
2022/07/22 04:08:59;;;;;;;15.15;7.30;;;;;;;-145.69;100.00;71541.69;5053759;28;20219;-80
2022/07/22 04:11:30;;;;;;;11.35;7.53;;;;;;;-145.69;100.00;71547.66;5072349;28;20721;-79
2022/07/22 04:13:57;;;;;;;13.68;7.20;;;;;;;-145.69;100.00;71549.66;5072722;28;20214;-79
2022/07/22 04:16:23;;;;;;;16.73;7.72;;;;;;;-145.69;100.00;71559.59;5072377;28;20203;-80
2022/07/22 04:18:52;;;;;;;13.52;7.60;;;;;;;-145.69;100.00;71565.56;5072345;28;20246;-79
2022/07/22 04:21:19;;;;;;;14.23;8.10;;;;;;;-145.69;100.00;71549.66;5072446;28;20239;-79
2022/07/22 04:23:47;;;;;;;13.38;7.10;;;;;;;-145.69;100.00;71553.63;5072437;28;20207;-80
2022/07/22 04:26:13;;;;;;;15.18;8.15;;;;;;;-145.69;100.00;71549.66;5072174;28;20221;-79
2022/07/22 04:28:41;;;;;;;14.50;7.55;;;;;;;-145.69;100.00;71549.66;5071698;28;20205;-79
2022/07/22 04:31:08;;;;;;;12.75;7.80;;;;;;;-145.69;100.00;71555.63;5072431;28;20210;-80
2022/07/22 04:33:34;;;;;;;12.85;7.90;;;;;;;-145.69;100.00;71545.66;5072119;28;20650;-80
2022/07/22 04:36:01;;;;;;;13.13;8.45;;;;;;;-145.69;100.00;71541.69;5072469;28;20203;-79
2022/07/22 04:38:27;;;;;;;17.02;8.05;;;;;;;-145.69;100.00;71533.72;5073083;28;20302;-79
2022/07/22 04:40:56;;;;;;;11.20;7.80;;;;;;;-145.69;100.00;71527.75;5075763;28;20206;-80
2022/07/22 04:43:22;;;;;;;10.73;7.50;;;;;;;-145.69;100.00;71517.81;5075463;28;20257;-79
2022/07/22 04:45:51;;;;;;;15.15;8.13;;;;;;;-145.69;100.00;71501.88;5075493;28;20206;-80
2022/07/22 04:48:19;;;;;;;14.60;8.25;;;;;;;-145.69;100.00;71501.88;5075562;28;20565;-80
2022/07/22 04:50:46;;;;;;;10.93;7.78;;;;;;;-145.69;100.00;71489.94;5075541;28;20274;-79
2022/07/22 04:53:12;;;;;;;11.60;7.22;;;;;;;-145.69;100.00;71482.00;5075547;28;20199;-80
2022/07/22 04:55:39;;;;;;;12.00;8.00;;;;;;;-145.69;100.00;71474.03;5075645;28;20229;-80
2022/07/22 04:58:08;;;;;;;11.23;7.05;;;;;;;-145.69;100.00;71470.06;5074774;28;20654;-80
2022/07/22 05:00:34;;;;;;;11.45;7.38;;;;;;;-145.69;100.00;71458.09;5075334;28;20206;-80
2022/07/22 05:03:04;;;;;;;9.77;7.10;;;;;;;-145.69;100.00;71450.16;5075415;28;20206;-80
2022/07/22 05:05:30;;;;;;;11.20;7.30;;;;;;;-145.69;100.00;71444.19;5075609;28;20206;-80
2022/07/22 05:07:58;;;;;;;9.77;7.03;;;;;;;-145.69;100.00;71428.25;5075529;28;20215;-80
2022/07/22 05:10:25;;;;;;;9.13;6.47;;;;;;;-145.69;100.00;71422.28;5075292;28;20226;-80
2022/07/22 05:12:54;;;;;;;10.98;7.50;;;;;;;-145.69;100.00;71402.41;5075028;28;20198;-80
2022/07/22 05:15:21;;;;;;;12.02;7.70;;;;;;;-145.69;100.00;71382.50;5075342;28;20210;-80
2022/07/22 05:17:47;;;;;;;11.88;7.55;;;;;;;-145.69;100.00;71362.59;5075014;28;20202;-80
2022/07/22 05:20:16;;;;;;;15.43;6.88;;;;;;;-145.69;100.00;71350.66;5075204;28;20282;-80
2022/07/22 05:22:42;;;;;;;13.25;6.00;;;;;;;-145.69;100.00;71336.72;5075010;28;20221;-79
2022/07/22 05:25:09;;;;;;;11.43;6.05;;;;;;;-145.69;100.00;71330.75;5074936;28;20202;-80
2022/07/22 05:27:36;;;;;;;11.95;5.85;;;;;;;-145.69;100.00;71318.81;5074594;28;20195;-79
2022/07/22 05:30:06;;;;;;;9.38;6.00;;;;;;;-145.69;100.00;71302.91;5078880;28;20227;-80
2022/07/22 05:32:33;;;;;;;9.52;6.40;;;;;;;-145.69;100.00;71285.00;5054842;28;20270;-80
2022/07/22 05:34:59;;;;;;;12.25;6.40;;;;;;;-145.69;100.00;71263.09;5054856;28;20209;-80
2022/07/22 05:37:27;;;;;;;8.23;5.55;;;;;;;-145.69;100.00;71251.16;5054652;28;20207;-80
2022/07/22 05:39:57;;;;;;;8.82;6.10;;;;;;;-145.69;100.00;71219.34;5054673;28;20207;-80
2022/07/22 05:42:23;;;;;;;9.55;5.95;;;;;;;-145.69;100.00;71189.47;5054557;28;20207;-80
2022/07/22 05:44:50;;;;;;;10.27;6.13;;;;;;;-145.69;100.00;71123.81;5054052;28;20669;-80
2022/07/22 05:47:16;;;;;;;7.57;5.32;;;;;;;-145.69;100.00;71040.25;5054714;28;20195;-81
2022/07/22 05:49:44;;;;;;;6.43;4.78;;;;;;;-145.69;100.00;70932.81;5053451;28;20242;-80
2022/07/22 05:52:13;;;;;;;6.63;4.45;;;;;;;-145.69;94.89;70829.34;5054388;28;20717;-80
2022/07/22 05:54:42;;;;;;;8.13;4.47;;;;;;;-145.69;87.31;70719.94;5054168;28;20286;-79
2022/07/22 05:57:10;;;;;;;7.25;4.30;;;;;;;-145.69;83.72;70642.34;5063100;28;20218;-78
2022/07/22 05:59:37;;;;;;;7.22;4.30;;;;;;;-145.69;81.08;70606.53;5073647;28;20337;-78
2022/07/22 06:02:04;;;;;;;7.78;4.45;;;;;;;-145.69;79.50;70590.63;5074259;28;20201;-78
2022/07/22 06:04:30;;;;;;;6.75;3.92;;;;;;;-145.69;78.03;70602.56;5070746;28;20282;-78
2022/07/22 06:06:57;;;;;;;6.50;3.95;;;;;;;-145.69;79.21;70612.50;5054176;28;20231;-78
2022/07/22 06:09:23;;;;;;;5.78;3.50;;;;;;;-145.69;76.65;70586.63;5053960;28;20617;-78
2022/07/22 06:11:51;;;;;;;5.07;3.75;;;;;;;-145.69;79.41;70612.50;5054010;28;20226;-77
2022/07/22 06:14:20;;;;;;;5.35;3.33;;;;;;;-145.69;76.90;70582.66;5054027;28;20681;-77
2022/07/22 06:16:46;;;;;;;6.07;3.88;;;;;;;-145.69;74.79;70574.69;5053980;28;20672;-78
2022/07/22 06:19:12;;;;;;;5.55;4.00;;;;;;;-145.69;73.23;70534.91;5053621;28;20297;-78
2022/07/22 06:21:40;;;;;;;4.43;3.53;;;;;;;-145.69;74.62;70526.94;5053976;28;20215;-78
2022/07/22 06:24:07;;;;;;;6.25;3.70;;;;;;;-145.69;74.81;70524.97;5053804;28;20291;-78
2022/07/22 06:26:36;;;;;;;6.00;3.67;;;;;;;-145.69;71.69;70513.03;5060371;28;20657;-78
2022/07/22 06:29:04;;;;;;;6.47;3.70;;;;;;;-145.69;69.83;70513.03;5074072;28;20245;-78
2022/07/22 06:31:30;;;;;;;6.97;3.83;;;;;;;-145.69;70.48;70477.22;5073749;28;20210;-77
2022/07/22 06:33:58;;;;;;;6.20;3.72;;;;;;;-145.69;69.12;70459.31;5073328;28;20202;-78
2022/07/22 06:36:25;;;;;;;7.25;4.20;;;;;;;-145.69;66.23;70423.50;5073588;28;20234;-77
2022/07/22 06:38:53;;;;;;;4.40;3.60;;;;;;;-145.69;71.10;70495.13;5073095;28;20691;-78
2022/07/22 06:41:20;;;;;;;6.10;4.38;;;;;;;-145.69;73.55;70538.88;5073693;28;20241;-78
2022/07/22 06:43:46;;;;;;;7.57;4.22;;;;;;;-145.69;74.10;70582.66;5073561;28;20203;-78
2022/07/22 06:46:14;;;;;;;6.35;4.30;;;;;;;-145.69;73.36;70570.72;5073071;28;20645;-77
2022/07/22 06:48:41;;;;;;;8.02;4.55;;;;;;;-145.69;77.74;70642.34;5073426;28;20301;-78
2022/07/22 06:51:08;;;;;;;9.68;4.50;;;;;;;-145.69;77.69;70688.09;5073132;28;20243;-78
2022/07/22 06:53:34;;;;;;;6.57;4.60;;;;;;;-145.69;77.69;70642.34;5073278;28;20202;-80
2022/07/22 06:56:04;;;;;;;8.68;4.60;;;;;;;-145.69;78.67;70642.34;5072893;28;20645;-78
2022/07/22 06:58:31;;;;;;;6.63;4.60;;;;;;;-145.69;81.16;70630.41;5073399;28;20206;-80
2022/07/22 07:00:59;;;;;;;7.82;4.82;;;;;;;-145.69;78.02;70630.41;5072561;28;20202;-80
2022/07/22 07:03:27;;;;;;;9.18;5.30;;;;;;;-145.69;83.35;70622.44;5073165;28;20203;-80
2022/07/22 07:05:56;;;;;;;8.50;4.57;;;;;;;-145.69;80.66;70618.47;5072824;28;20202;-80
2022/07/22 07:08:24;;;;;;;7.45;5.05;;;;;;;-145.69;81.51;70644.31;5073321;28;20222;-80
2022/07/22 07:10:54;;;;;;;8.60;5.50;;;;;;;-145.69;81.69;70632.38;5072883;28;20566;-80
2022/07/22 07:13:20;;;;;;;7.60;5.13;;;;;;;-145.69;80.96;70622.44;5073059;28;20203;-80
2022/07/22 07:15:47;;;;;;;10.02;5.13;;;;;;;-145.69;84.42;70612.50;5072946;28;20653;-80
2022/07/22 07:18:13;;;;;;;8.18;5.03;;;;;;;-145.69;83.55;70606.53;5072805;28;20653;-80
2022/07/22 07:20:41;;;;;;;6.57;4.68;;;;;;;-145.69;81.43;70586.63;5073156;28;20209;-80
2022/07/22 07:23:08;;;;;;;8.95;5.15;;;;;;;-145.69;87.00;70564.75;5072909;28;20202;-80
2022/07/22 07:25:34;;;;;;;11.20;5.80;;;;;;;-145.69;79.68;70560.78;5072444;28;20198;-81
2022/07/22 07:28:01;;;;;;;8.55;5.47;;;;;;;-145.69;79.40;70546.84;5072380;28;20669;-80
2022/07/22 07:30:27;;;;;;;11.18;4.95;;;;;;;-145.69;78.54;70532.91;5072858;28;20640;-81
2022/07/22 07:32:54;;;;;;;9.70;5.30;;;;;;;-145.69;80.96;70538.88;5072772;28;20203;-81
2022/07/22 07:35:20;;;;;;;9.23;4.95;;;;;;;-145.69;79.27;70538.88;5072984;28;20195;-81
2022/07/22 07:37:48;;;;;;;7.18;5.03;;;;;;;-145.69;80.45;70503.06;5072826;28;20209;-80
2022/07/22 07:40:15;;;;;;;8.77;5.38;;;;;;;-145.69;82.58;70479.19;5073360;28;20264;-78
2022/07/22 07:42:41;;;;;;;9.07;4.47;;;;;;;-145.69;72.64;70497.09;5072846;28;20697;-80
2022/07/22 07:45:08;;;;;;;9.48;5.43;;;;;;;-145.69;75.45;70499.09;5071909;28;20431;-79
2022/07/22 07:47:35;;;;;;;8.77;5.57;;;;;;;-145.69;77.41;70473.22;5072970;28;20206;-80
2022/07/22 07:50:02;;;;;;;8.75;4.72;;;;;;;-145.69;69.67;70431.47;5072824;28;20235;-80
2022/07/22 07:52:28;;;;;;;10.90;4.80;;;;;;;-145.69;69.26;70403.59;5072862;28;20205;-80
2022/07/22 07:54:56;;;;;;;11.52;5.28;;;;;;;-145.69;67.16;70379.72;5072782;28;20198;-80
2022/07/22 07:57:23;;;;;;;8.00;4.05;;;;;;;-145.69;65.60;70353.88;5072459;28;20588;-80
2022/07/22 07:59:49;;;;;;;9.70;4.55;;;;;;;-145.69;66.38;70330.00;5071951;28;20210;-79
2022/07/22 08:02:16;;;;;;;8.57;4.35;;;;;;;-145.69;64.70;70304.13;5070761;28;20234;-80
2022/07/22 08:04:42;;;;;;;5.22;3.75;;;;;;;-145.69;63.32;70312.09;5062956;28;20208;-80
2022/07/22 08:07:09;;;;;;;8.93;4.43;;;;;;;-145.69;62.89;70300.16;5072095;28;20550;-80
2022/07/22 08:09:37;;;;;;;6.72;4.45;;;;;;;-145.69;70.62;70260.38;5072573;28;20205;-79
2022/07/22 08:12:05;;;;;;;10.48;4.72;;;;;;;-145.69;62.62;70276.28;5072392;28;20202;-79
2022/07/22 08:14:31;;;;;;;9.02;4.72;;;;;;;-145.69;61.15;70284.25;5074966;28;20202;-79
2022/07/22 08:16:58;;;;;;;10.05;4.78;;;;;;;-145.69;63.39;70298.16;5076477;28;20206;-80
2022/07/22 08:19:24;;;;;;;9.27;5.03;;;;;;;-145.69;61.84;70288.22;5076329;28;20440;-80
2022/07/22 08:21:51;;;;;;;8.90;5.40;;;;;;;-145.69;63.42;70310.09;5076149;28;20927;-80
2022/07/22 08:24:17;;;;;;;9.15;5.88;;;;;;;-145.69;69.14;70258.38;5076097;28;20199;-80
2022/07/22 08:26:44;;;;;;;11.38;4.72;;;;;;;-145.69;60.94;70252.41;5076356;28;20203;-80
2022/07/22 08:29:11;;;;;;;9.70;5.65;;;;;;;-145.69;59.79;70272.31;5075715;28;20261;-80
2022/07/22 08:31:38;;;;;;;7.07;4.78;;;;;;;-145.69;68.50;70222.56;5076181;28;20234;-79
2022/07/22 08:34:05;;;;;;;7.57;5.38;;;;;;;-145.69;61.79;70220.59;5076161;28;20202;-80
2022/07/22 08:36:32;;;;;;;10.50;5.22;;;;;;;-145.69;62.87;70232.53;5075547;28;20199;-80
2022/07/22 08:38:59;;;;;;;10.55;5.20;;;;;;;-145.69;60.58;70226.56;5068489;28;20222;-80
2022/07/22 08:41:26;;;;;;;8.13;5.07;;;;;;;-145.69;65.27;70188.75;5075705;28;20195;-80
2022/07/22 08:43:53;;;;;;;11.27;5.10;;;;;;;-145.69;61.34;70188.75;5075616;28;20210;-79
2022/07/22 08:46:21;;;;;;;9.23;5.28;;;;;;;-145.69;58.05;70182.78;5075291;28;20578;-79
2022/07/22 08:48:48;;;;;;;8.25;5.50;;;;;;;-145.69;57.20;70212.63;5076111;28;20198;-80
2022/07/22 08:51:14;;;;;;;13.85;5.22;;;;;;;-145.69;59.06;70208.66;5075499;28;20242;-79
2022/07/22 08:53:40;;;;;;;8.18;4.30;;;;;;;-145.69;60.20;70188.75;5075752;28;20218;-81
2022/07/22 08:56:08;;;;;;;8.60;4.65;;;;;;;-145.69;58.23;70190.75;5075591;28;20604;-79
2022/07/22 08:58:34;;;;;;;9.43;4.95;;;;;;;-145.69;57.00;70214.63;5075758;28;20202;-78
2022/07/22 09:01:05;;;;;;;10.50;4.30;;;;;;;-145.69;58.78;70192.75;5075875;28;20203;-80
2022/07/22 09:03:33;;;;;;;8.55;4.63;;;;;;;-145.69;58.07;70172.84;5075221;28;20199;-80
2022/07/22 09:06:00;;;;;;;9.35;5.07;;;;;;;-145.69;57.61;70152.97;5075682;28;20195;-80
2022/07/22 09:08:26;;;;;;;5.85;4.30;;;;;;;-145.69;56.74;70156.94;5075342;28;20203;-78
2022/07/22 09:10:53;;;;;;;11.38;5.32;;;;;;;-145.69;54.86;70164.88;5075310;28;20230;-80
2022/07/22 09:13:19;;;;;;;8.82;5.35;;;;;;;-145.69;55.16;70141.03;5075298;28;20203;-80
2022/07/22 09:15:50;;;;;;;8.82;5.18;;;;;;;-145.69;60.13;70162.91;5075526;28;20295;-79
2022/07/22 09:18:17;;;;;;;7.90;4.90;;;;;;;-145.69;54.59;70147.00;5075353;28;20210;-80
2022/07/22 09:20:45;;;;;;;7.82;4.68;;;;;;;-145.69;55.89;70137.03;5075408;28;20250;-81
2022/07/22 09:23:13;;;;;;;7.63;4.65;;;;;;;-145.69;53.87;70109.19;5075074;28;20657;-79
2022/07/22 09:25:40;;;;;;;6.70;4.70;;;;;;;-145.69;53.75;70085.31;5075191;28;20209;-80
2022/07/22 09:28:14;;;;;;;6.38;4.38;;;;;;;-145.69;55.06;70099.25;5075020;28;20206;-80
2022/07/22 09:30:45;;;;;;;9.48;4.95;;;;;;;-145.69;51.84;70113.16;5074713;28;20951;-80
2022/07/22 09:33:12;;;;;;;7.50;5.10;;;;;;;-145.69;55.92;70137.03;5075053;28;20202;-80
2022/07/22 09:35:39;;;;;;;6.07;4.70;;;;;;;-145.69;58.33;70097.25;5073923;28;20198;-80
2022/07/22 09:38:09;;;;;;;8.95;5.00;;;;;;;-145.69;51.76;70109.19;5074706;28;20199;-80
2022/07/22 09:40:37;;;;;;;8.98;4.72;;;;;;;-145.69;51.70;70083.34;5074946;28;20203;-80
2022/07/22 09:43:06;;;;;;;6.82;4.50;;;;;;;-145.69;49.34;70069.41;5074853;28;20195;-80
2022/07/22 09:45:34;;;;;;;10.02;5.07;;;;;;;-145.69;50.91;70025.66;5074732;28;20260;-77
2022/07/22 09:48:03;;;;;;;6.25;4.30;;;;;;;-145.69;54.31;70041.56;5074622;28;20213;-80
2022/07/22 09:50:31;;;;;;;5.82;4.18;;;;;;;-145.69;51.20;70025.66;5074402;28;20242;-82
2022/07/22 09:53:01;;;;;;;6.80;4.30;;;;;;;-145.69;50.42;70041.56;5074609;28;20210;-80
2022/07/22 09:55:41;;;;;;;6.47;4.40;;;;;;;-145.69;51.10;70017.69;5074094;28;20198;-80
2022/07/22 09:58:11;;;;;;;7.32;4.10;;;;;;;-145.69;46.33;70015.69;5074125;28;20557;-80
2022/07/22 10:00:39;;;;;;;6.53;4.03;;;;;;;-145.69;46.61;69997.78;5074153;28;20293;-80
2022/07/22 10:03:08;;;;;;;6.85;4.05;;;;;;;-145.69;46.31;70033.59;5074038;28;20191;-80
2022/07/22 10:05:37;;;;;;;10.52;3.63;;;;;;;-145.69;46.03;70037.59;5074366;28;20199;-79
2022/07/22 10:08:05;;;;;;;7.35;3.95;;;;;;;-145.69;47.63;70015.69;5074294;28;20203;-79
2022/07/22 10:10:34;;;;;;;7.00;3.63;;;;;;;-145.69;44.04;69997.78;5057395;28;20214;-79
2022/07/22 10:13:03;;;;;;;7.80;3.70;;;;;;;-145.69;43.80;70013.72;5054050;28;20203;-78
2022/07/22 10:15:31;;;;;;;6.38;3.50;;;;;;;-145.69;45.19;70003.75;5053424;28;20650;-79
2022/07/22 10:18:00;;;;;;;7.57;3.75;;;;;;;-145.69;45.68;69997.78;5069361;28;20203;-79
2022/07/22 10:20:29;;;;;;;7.80;4.45;;;;;;;-145.69;44.22;70025.66;5073490;28;20289;-79
2022/07/22 10:22:57;;;;;;;6.85;3.92;;;;;;;-145.69;44.17;70051.50;5053501;28;20257;-79
2022/07/22 10:25:25;;;;;;;7.50;3.53;;;;;;;-145.69;47.39;70009.72;5053837;28;20206;-79
2022/07/22 10:27:55;;;;;;;6.25;3.83;;;;;;;-145.69;43.79;70001.78;5053692;28;20238;-79
2022/07/22 10:30:24;;;;;;;5.07;3.75;;;;;;;-145.69;46.28;69981.88;5052627;28;20481;-79
2022/07/22 10:33:05;;;;;;;6.32;4.30;;;;;;;-145.69;47.35;69997.78;5053398;28;20222;-77
2022/07/22 10:35:32;;;;;;;5.78;3.88;;;;;;;-145.69;44.47;70005.75;5053495;28;20203;-77
2022/07/22 10:38:01;;;;;;;8.40;3.72;;;;;;;-145.69;48.19;69969.94;5053171;28;20207;-77
2022/07/22 10:40:29;;;;;;;5.88;3.60;;;;;;;-145.69;43.92;69962.00;5053425;28;20211;-77
2022/07/22 10:43:13;;;;;;;5.72;3.80;;;;;;;-145.69;46.69;69908.28;5053829;28;20207;-76
2022/07/22 10:45:48;;;;;;;5.35;3.65;;;;;;;-145.69;45.91;69928.19;5053542;28;20203;-77
2022/07/22 10:48:17;;;;;;;5.38;3.88;;;;;;;-145.69;44.82;69924.19;5053550;28;20199;-78
2022/07/22 10:50:50;;;;;;;9.95;4.00;;;;;;;-145.69;45.19;69926.19;5067840;28;20680;-77
2022/07/22 10:53:21;;;;;;;5.68;3.65;;;;;;;-145.69;43.41;69930.16;5073172;28;20195;-77
2022/07/22 10:56:04;;;;;;;5.68;3.92;;;;;;;-145.69;44.00;69898.34;5073486;28;20203;-77
2022/07/22 10:58:46;;;;;;;6.28;4.10;;;;;;;-145.69;43.20;69886.41;5071969;28;20206;-78
2022/07/22 11:01:15;;;;;;;6.50;3.75;;;;;;;-145.69;47.05;69842.66;5073024;28;20653;-77
2022/07/22 11:03:44;;;;;;;6.13;3.80;;;;;;;-145.69;46.69;69830.72;5073496;28;20305;-77
2022/07/22 11:06:22;;;;;;;9.18;4.30;;;;;;;-145.69;42.36;69840.66;5073039;28;20198;-77
2022/07/22 11:08:50;;;;;;;6.28;4.20;;;;;;;-145.69;42.63;69866.50;5072980;28;20202;-77
2022/07/22 11:11:18;;;;;;;7.47;3.65;;;;;;;-145.69;43.10;69858.56;5073013;28;20230;-77
2022/07/22 11:13:46;;;;;;;4.28;3.40;;;;;;;-145.69;45.44;69850.59;5073119;28;20657;-76
2022/07/22 11:16:18;;;;;;;7.38;3.88;;;;;;;-145.69;43.72;69830.72;5073162;28;20237;-77